Flight Track Log - Related Links

Times and Time Zones

All times are in EDT time to prevent confusion due to time zone crossing. See the DAL1562 flight status page for this flight to view local times or setup timezone preferences in your user account.


Time Position Orientation Groundspeed Altitude Reporting Facility
EDT Latitude Longitude Course Direction KTS MPH feet Rate Location/Type
Tue 02:27:04 PM 42.2017 -83.3583 95° East 162 186 1,400  Level Cleveland Center
Tue 02:27:29 PM 42.1828 -83.3603 184° South 178 205 2,300 2,512 Climbing Cleveland Center
Tue 02:28:30 PM 42.1161 -83.3600 180° South 266 306 5,000 3,148 Climbing Cleveland Center
Tue 02:29:31 PM 42.0589 -83.3100 147° Southeast 290 334 8,700 2,803 Climbing Cleveland Center
Tue 02:30:00 PM 42.2167 -82.6140 90° East  Level FlightAware Approximate
Tue 02:30:32 PM 42.0364 -83.1972 105° East 325 374 10,700  Level Cleveland Center
Tue 02:31:00 PM 42.2164 -82.4293 95° East  Level FlightAware Approximate
Tue 02:31:34 PM 42.0644 -83.0697 73° East 366 421 12,600  Level Cleveland Center
Tue 02:32:00 PM 42.2050 -82.2452 95° East  Level FlightAware Approximate
Tue 02:32:34 PM 42.0961 -82.9478 71° East 377 434 13,000  Level Cleveland Center
Tue 02:33:34 PM 42.1344 -82.8008 71° East 389 448 15,800 2,550 Climbing Cleveland Center
Tue 02:34:34 PM 42.1728 -82.6453 72° East 412 474 18,100 2,750 Climbing Cleveland Center
Tue 02:35:34 PM 42.1922 -82.4861 81° East 424 488 21,300 2,600 Climbing Cleveland Center
Tue 02:36:34 PM 42.1361 -82.3500 119° Southeast 395 455 23,300 1,650 Climbing Cleveland Center
Tue 02:37:34 PM 42.0631 -82.2081 125° Southeast 417 480 24,600 1,300 Climbing Cleveland Center
Tue 02:38:34 PM 41.9819 -82.0497 125° Southeast 450 518 25,900 1,650 Climbing Cleveland Center
Tue 02:39:34 PM 41.9064 -81.9028 125° Southeast 476 548 27,900 1,900 Climbing Cleveland Center
Tue 02:40:34 PM 41.8308 -81.7592 125° Southeast 482 555 29,700 1,900 Climbing Cleveland Center
Tue 02:41:34 PM 41.7572 -81.6186 125° Southeast 477 549 31,700 1,650 Climbing Cleveland Center
Tue 02:42:34 PM 41.6833 -81.4756 125° Southeast 467 537 33,000 650 Climbing Cleveland Center
Tue 02:43:34 PM 41.6156 -81.3497 126° Southeast 467 537 33,000  Level Cleveland Center
Tue 02:44:34 PM 41.5414 -81.2100 125° Southeast 474 545 33,000  Level Cleveland Center
Tue 02:45:34 PM 41.4564 -81.0819 132° Southeast 468 539 33,000  Level Cleveland Center
Tue 02:46:34 PM 41.3672 -80.9539 133° Southeast 459 528 33,000  Level Cleveland Center
Tue 02:47:34 PM 41.2697 -80.8236 135° Southeast 454 522 33,000  Level Cleveland Center
Tue 02:48:34 PM 41.1825 -80.6989 133° Southeast 459 528 33,000  Level Cleveland Center
Tue 02:49:34 PM 41.1033 -80.5886 134° Southeast 459 528 33,000  Level Cleveland Center
Tue 02:50:34 PM 41.0178 -80.4675 133° Southeast 454 522 33,000  Level Cleveland Center
Tue 02:51:34 PM 40.9300 -80.3467 134° Southeast 454 522 33,000  Level Cleveland Center
Tue 02:52:34 PM 40.8378 -80.2236 135° Southeast 459 528 33,000  Level Cleveland Center
Tue 02:53:34 PM 40.7789 -80.0814 119° Southeast 451 519 33,000  Level Cleveland Center
Tue 02:54:34 PM 40.7242 -79.9283 115° Southeast 451 519 33,000  Level Cleveland Center
Tue 02:55:34 PM 40.6711 -79.7811 115° Southeast 446 513 33,000  Level Cleveland Center
Tue 02:56:34 PM 40.6178 -79.6311 115° Southeast 446 513 33,000  Level Cleveland Center
Tue 02:57:34 PM 40.5622 -79.4844 116° Southeast 446 513 33,000  Level Cleveland Center
Tue 02:58:34 PM 40.5189 -79.3322 110° East 446 513 33,000  Level Cleveland Center
Tue 02:59:34 PM 40.4919 -79.1717 102° East 439 505 33,000  Level Cleveland Center
Tue 03:00:34 PM 40.4692 -79.0167 101° East 439 505 33,000  Level Cleveland Center
Tue 03:01:34 PM 40.4461 -78.8561 101° East 434 499 33,000  Level Cleveland Center
Tue 03:02:34 PM 40.4247 -78.6986 100° East 439 505 33,000  Level Cleveland Center
Tue 03:03:34 PM 40.3947 -78.5222 103° East 445 512 33,000 -316 Level Cleveland Center
Tue 03:05:06 PM 40.3656 -78.2983 100° East 472 543 32,200 -1,880 Descending New York Center
Tue 03:06:04 PM 40.3403 -78.1375 102° East 466 536 28,300 -3,479 Descending New York Center
Tue 03:07:05 PM 40.3150 -77.9717 101° East 455 524 25,300 -1,869 Descending New York Center
Tue 03:08:06 PM 40.3122 -77.8106 91° East 449 517 24,500 -1,322 Descending New York Center
Tue 03:09:03 PM 40.3089 -77.6522 92° East 444 511 22,700 -1,525 Descending New York Center
Tue 03:10:04 PM 40.3094 -77.4972 90° East 444 511 21,500 -1,140 Descending New York Center
Tue 03:11:04 PM 40.3039 -77.3358 93° East 444 511 20,400 -1,140 Descending New York Center
Tue 03:12:05 PM 40.2789 -77.1867 102° East 439 505 19,200 -1,200 Descending New York Center
Tue 03:13:04 PM 40.2500 -77.0233 103° East 418 481 18,000 -600 Descending New York Center
Tue 03:14:05 PM 40.2244 -76.8742 103° East 419 482 18,000 -984 Level New York Center
Tue 03:15:06 PM 40.2019 -76.7472 103° East 414 476 16,000 -1,815 Descending New York Center
Tue 03:16:04 PM 40.1775 -76.6092 103° East 399 459 14,400 -2,034 Descending New York Center
Tue 03:17:04 PM 40.1533 -76.4661 102° East 377 434 12,000 -1,686 Descending New York Center
Tue 03:18:05 PM 40.1297 -76.3444 104° East 362 417 11,000 -590 Descending New York Center
Tue 03:19:06 PM 40.1164 -76.2322 99° East 351 404 10,800 -504 Descending New York Center
Tue 03:20:04 PM 40.1086 -76.1256 95° East 326 375 10,000 -1,109 Descending New York Center
Tue 03:21:05 PM 40.0992 -76.0136 96° East 287 330 8,600 -984 Descending New York Center
Tue 03:22:06 PM 40.0931 -75.9128 94° East 280 322 8,000 -298 Descending New York Center
Tue 03:23:06 PM 40.0822 -75.8278 99° East 269 310 8,000 -555 Level New York Center
Tue 03:24:05 PM 40.0231 -75.7503 135° Southeast 261 300 6,900 -1,350 Descending New York Center
Tue 03:25:06 PM 39.9775 -75.6903 135° Southeast 266 306 5,300 -1,462 Descending New York Center
Tue 03:26:04 PM 39.9222 -75.6186 135° Southeast 261 300 4,000 -1,160 Descending New York Center
Tue 03:27:05 PM 39.8786 -75.5589 134° Southeast 256 295 3,000 -843 Descending New York Center
Tue 03:28:05 PM 39.8481 -75.4892 120° Southeast 220 253 2,300 -700 Descending New York Center

Login

Don't have an account? Register now (free) for customized features, flight alerts, and more!